Time;durP1;ratioP1;P1;durP2;ratioP2;P2;SDS_P1;SDS_P2;PMS_P1;PMS_P2;Temp;Humidity;BMP_temperature;BMP_pressure;BME280_temperature;BME280_humidity;BME280_pressure;Samples;Min_cycle;Max_cycle;Signal;HPM_P1;HPM_P2
2021/12/14 00:00:54;;;;;;;14.65;8.13;;;;;;;2.01;83.84;98172.66;10295846;28;20084;-57
2021/12/14 00:05:53;;;;;;;12.23;7.32;;;;;;;1.99;83.21;98170.88;10294932;28;20539;-57
2021/12/14 00:16:01;;;;;;;14.13;7.25;;;;;;;2.09;83.40;98168.75;10295738;28;20403;-57
2021/12/14 00:21:05;;;;;;;18.60;9.00;;;;;;;2.09;83.15;98171.28;10294094;28;20065;-57
2021/12/14 00:26:04;;;;;;;14.57;8.32;;;;;;;2.14;82.98;98180.03;10295063;28;20065;-57
2021/12/14 00:31:09;;;;;;;12.60;7.25;;;;;;;2.06;83.46;98193.31;10295080;28;20057;-57
2021/12/14 00:36:12;;;;;;;11.77;7.95;;;;;;;2.02;83.28;98194.91;10294219;28;20092;-57
2021/12/14 00:41:16;;;;;;;13.63;9.02;;;;;;;2.12;82.91;98193.59;10294081;28;20069;-57
2021/12/14 00:46:17;;;;;;;13.88;8.98;;;;;;;2.13;83.09;98203.00;10294637;28;20520;-57
2021/12/14 00:51:21;;;;;;;13.73;7.88;;;;;;;2.14;82.63;98200.50;10293824;28;20499;-57
2021/12/14 00:56:20;;;;;;;12.93;8.00;;;;;;;1.90;83.27;98190.19;10294043;28;20538;-58
2021/12/14 01:01:27;;;;;;;13.35;8.10;;;;;;;2.01;83.28;98205.06;10293984;28;20485;-58
2021/12/14 01:06:31;;;;;;;15.05;9.07;;;;;;;2.02;82.71;98202.59;10293766;28;20104;-57
2021/12/14 01:11:39;;;;;;;13.48;8.10;;;;;;;2.11;82.90;98209.72;10293047;28;20145;-57
2021/12/14 01:22:13;;;;;;;12.60;8.13;;;;;;;2.08;82.99;98215.59;10292786;28;20057;-58
2021/12/14 01:27:19;;;;;;;14.05;8.55;;;;;;;1.99;83.56;98215.25;10292841;28;20061;-57
2021/12/14 01:32:20;;;;;;;14.85;8.57;;;;;;;1.93;83.35;98220.13;10292353;28;20507;-57
2021/12/14 01:37:24;;;;;;;14.13;9.32;;;;;;;1.85;83.01;98224.91;10293004;28;20056;-57
2021/12/14 01:42:30;;;;;;;15.30;9.05;;;;;;;1.79;83.68;98217.00;10291833;28;20519;-57
2021/12/14 01:47:35;;;;;;;12.50;8.18;;;;;;;1.68;83.45;98223.38;10291990;28;20053;-57
2021/12/14 01:52:34;;;;;;;13.98;8.38;;;;;;;1.73;83.48;98220.19;10292156;28;20068;-57
2021/12/14 01:57:35;;;;;;;13.00;7.93;;;;;;;1.78;83.33;98224.63;10291522;28;20093;-57
2021/12/14 02:02:44;;;;;;;14.40;9.02;;;;;;;1.90;83.00;98226.00;10292067;28;20540;-57
2021/12/14 02:07:43;;;;;;;;;;;;;;;2.02;82.73;98215.38;10292069;28;20473;-57
2021/12/14 02:12:44;;;;;;;13.75;8.57;;;;;;;2.05;82.16;98215.50;10291966;28;20444;-57
2021/12/14 02:17:44;;;;;;;15.27;9.48;;;;;;;2.04;82.08;98218.84;10291236;28;20065;-57
2021/12/14 02:22:44;;;;;;;13.75;8.50;;;;;;;2.10;81.81;98229.34;10291636;28;20069;-57
2021/12/14 02:27:44;;;;;;;;;;;;;;;2.07;82.13;98215.56;10290489;28;20072;-57
2021/12/14 02:32:43;;;;;;;11.38;7.50;;;;;;;2.01;81.67;98221.31;10290525;28;20440;-57
2021/12/14 02:38:00;;;;;;;12.30;8.10;;;;;;;2.03;81.70;98219.69;10290979;28;20547;-57
2021/12/14 02:43:02;;;;;;;14.90;10.05;;;;;;;1.94;82.21;98221.88;10290406;28;20092;-57
2021/12/14 02:48:07;;;;;;;18.48;11.73;;;;;;;1.90;82.48;98202.06;10290442;28;20065;-57
2021/12/14 02:53:06;;;;;;;27.38;16.50;;;;;;;1.89;82.17;98219.13;10290950;28;20061;-57
2021/12/14 02:58:08;;;;;;;21.70;12.88;;;;;;;1.77;82.13;98233.13;10290557;28;20132;-57
2021/12/14 03:03:09;;;;;;;21.20;12.20;;;;;;;1.69;82.42;98228.56;10290234;28;20557;-57
2021/12/14 03:08:20;;;;;;;22.90;13.13;;;;;;;1.61;82.83;98237.59;10289122;28;20076;-57
2021/12/14 03:13:21;;;;;;;15.80;9.63;;;;;;;1.57;83.39;98224.59;10288908;28;20077;-57
2021/12/14 03:18:29;;;;;;;15.05;10.05;;;;;;;1.55;83.78;98239.88;10290506;28;20057;-57
2021/12/14 03:23:45;;;;;;;16.63;10.10;;;;;;;1.53;83.97;98250.06;10289568;28;21062;-57
2021/12/14 03:28:48;;;;;;;28.00;15.38;;;;;;;1.45;84.02;98248.84;10289812;28;20065;-57
2021/12/14 03:33:54;;;;;;;14.40;9.25;;;;;;;1.39;84.35;98246.03;10289486;28;20057;-57
2021/12/14 03:39:08;;;;;;;16.67;9.95;;;;;;;1.28;84.30;98214.88;10295302;28;20090;-57
2021/12/14 03:44:15;;;;;;;18.35;12.57;;;;;;;1.41;84.60;98239.31;10296909;28;20105;-57
2021/12/14 03:49:16;;;;;;;15.32;9.77;;;;;;;1.50;84.53;98247.34;10296660;28;20068;-57
2021/12/14 03:54:18;;;;;;;14.52;9.18;;;;;;;1.58;84.12;98244.28;10296268;28;20057;-57
2021/12/14 03:59:18;;;;;;;13.40;8.45;;;;;;;1.46;84.52;98255.72;10296413;28;20517;-57
2021/12/14 04:04:50;;;;;;;15.05;9.65;;;;;;;1.41;85.02;98259.78;10295887;28;20489;-57
2021/12/14 04:09:49;;;;;;;17.23;12.15;;;;;;;1.49;84.41;98270.31;10295079;28;20068;-57
2021/12/14 04:14:55;;;;;;;19.17;12.45;;;;;;;1.45;84.81;98259.06;10296575;28;20507;-57
2021/12/14 04:19:54;;;;;;;18.33;12.25;;;;;;;1.54;84.84;98262.03;10295125;28;20076;-57
2021/12/14 04:24:59;;;;;;;16.75;10.38;;;;;;;1.57;84.65;98265.53;10294938;28;20053;-57
2021/12/14 04:30:01;;;;;;;20.63;12.70;;;;;;;1.50;84.72;98266.94;10294605;28;20465;-57
2021/12/14 04:35:00;;;;;;;15.52;9.75;;;;;;;1.48;84.67;98266.00;10293455;28;20080;-57
2021/12/14 04:40:15;;;;;;;18.30;11.30;;;;;;;1.49;84.58;98272.88;10294442;28;20065;-57
2021/12/14 04:56:00;;;;;;;15.63;10.00;;;;;;;1.47;84.77;98274.50;10293615;28;20065;-57
2021/12/14 05:01:03;;;;;;;17.63;11.15;;;;;;;1.50;84.28;98274.63;10293598;28;20077;-57
2021/12/14 05:11:17;;;;;;;23.77;14.18;;;;;;;1.40;84.71;98282.72;10292124;28;20466;-57
2021/12/14 05:16:18;;;;;;;24.70;15.82;;;;;;;1.31;84.43;98268.69;10223423;28;20073;-57
2021/12/14 05:21:27;;;;;;;20.13;13.57;;;;;;;1.37;84.72;98287.69;10363903;28;20061;-57
2021/12/14 05:26:27;;;;;;;25.95;16.02;;;;;;;1.35;84.62;98289.31;10372057;28;20057;-57
2021/12/14 05:31:26;;;;;;;26.13;14.60;;;;;;;1.26;84.61;98288.09;10371308;28;20068;-57
2021/12/14 05:36:26;;;;;;;23.02;14.00;;;;;;;1.37;84.64;98290.25;10346661;28;20131;-57
2021/12/14 05:46:53;;;;;;;17.35;11.23;;;;;;;1.38;84.14;98292.00;10372150;28;20499;-57
2021/12/14 05:51:54;;;;;;;16.85;12.02;;;;;;;1.32;84.35;98300.28;10365312;28;20071;-57
2021/12/14 05:56:55;;;;;;;18.58;13.20;;;;;;;1.33;84.59;98304.56;10367131;28;20060;-57
2021/12/14 06:01:55;;;;;;;17.42;12.45;;;;;;;1.40;84.68;98305.72;10366236;28;20072;-57
2021/12/14 06:06:55;;;;;;;19.98;11.70;;;;;;;1.44;84.58;98320.41;10370918;28;20071;-57
2021/12/14 06:12:19;;;;;;;23.35;15.45;;;;;;;1.37;84.26;98328.63;10358893;28;20072;-57
2021/12/14 06:17:26;;;;;;;33.95;21.83;;;;;;;1.35;84.22;98331.09;10364767;28;20064;-57
2021/12/14 06:22:25;;;;;;;39.95;27.23;;;;;;;1.33;84.53;98325.03;10368929;28;20567;-57
2021/12/14 06:27:26;;;;;;;;;;;;;;;1.36;84.02;98326.84;10371234;28;20052;-58
2021/12/14 06:32:29;;;;;;;25.67;18.77;;;;;;;1.23;84.33;98336.53;10376370;28;19952;-57
2021/12/14 06:43:30;;;;;;;37.30;24.70;;;;;;;1.24;85.02;98342.50;10367760;28;20076;-57
2021/12/14 06:48:44;;;;;;;37.05;21.77;;;;;;;1.26;84.77;98351.13;10326248;28;20547;-57
2021/12/14 06:53:48;;;;;;;36.13;23.35;;;;;;;1.33;85.05;98354.03;10345153;28;20484;-57
2021/12/14 06:59:10;;;;;;;30.38;20.73;;;;;;;1.40;84.72;98367.09;10367214;28;20089;-57
2021/12/14 07:04:13;;;;;;;30.08;19.33;;;;;;;1.33;84.75;98366.81;10366337;28;20085;-57
2021/12/14 07:09:17;;;;;;;33.20;20.30;;;;;;;1.39;84.65;98365.31;10369694;28;20070;-57
2021/12/14 07:14:28;;;;;;;28.77;18.85;;;;;;;1.35;84.64;98366.88;10363663;28;20092;-57
2021/12/14 07:19:55;;;;;;;32.78;20.20;;;;;;;1.36;84.81;98372.88;10336935;28;20541;-57
2021/12/14 07:25:03;;;;;;;38.90;24.45;;;;;;;1.31;84.47;98378.66;10375819;28;20061;-57
2021/12/14 07:30:22;;;;;;;59.17;39.45;;;;;;;1.30;84.71;98371.78;10376514;28;20056;-57
2021/12/14 07:35:34;;;;;;;70.10;46.58;;;;;;;1.33;84.62;98383.84;10341649;28;20057;-57
2021/12/14 07:40:39;;;;;;;74.53;49.33;;;;;;;1.32;84.84;98371.88;10374071;28;20042;-57
2021/12/14 07:45:39;;;;;;;66.13;44.42;;;;;;;1.49;84.70;98398.19;10356072;28;20052;-57
2021/12/14 07:50:46;;;;;;;83.10;55.28;;;;;;;1.45;84.52;98393.75;10377305;28;20503;-57
2021/12/14 07:55:45;;;;;;;80.00;48.47;;;;;;;1.40;84.65;98390.09;10348094;28;20516;-57
2021/12/14 08:00:45;;;;;;;73.30;44.40;;;;;;;1.39;84.37;98408.78;10345810;28;20072;-57
2021/12/14 08:05:46;;;;;;;39.42;25.63;;;;;;;1.37;84.42;98416.41;10376386;28;20166;-57
2021/12/14 08:10:56;;;;;;;38.17;23.48;;;;;;;1.47;84.69;98412.59;10376160;28;20075;-57
2021/12/14 08:15:59;;;;;;;49.88;29.58;;;;;;;1.47;84.60;98402.38;10375756;28;20495;-57
2021/12/14 08:21:04;;;;;;;43.85;28.00;;;;;;;1.45;83.86;98424.44;10376220;28;20136;-57
2021/12/14 08:26:05;;;;;;;49.17;33.58;;;;;;;1.43;84.48;98420.94;10374091;28;20052;-58
2021/12/14 08:31:06;;;;;;;64.68;38.65;;;;;;;1.52;84.64;98423.91;10375400;28;20056;-57
2021/12/14 08:36:10;;;;;;;64.80;40.80;;;;;;;1.66;84.59;98427.94;10375691;28;20053;-57
2021/12/14 08:41:21;;;;;;;54.25;36.15;;;;;;;1.75;84.42;98418.13;10375339;28;20061;-57
2021/12/14 08:46:26;;;;;;;59.40;40.88;;;;;;;1.89;84.40;98416.19;10370673;28;20049;-57
2021/12/14 08:51:35;;;;;;;53.13;37.15;;;;;;;1.91;84.08;98417.13;10372856;28;20568;-57
2021/12/14 08:56:39;;;;;;;45.17;29.80;;;;;;;1.80;83.77;98418.34;10373747;28;20173;-57
2021/12/14 09:01:43;;;;;;;53.28;34.67;;;;;;;1.76;83.61;98408.75;10375005;28;20076;-57
2021/12/14 09:06:46;;;;;;;62.75;41.85;;;;;;;1.83;83.84;98407.34;10374287;28;20480;-57
2021/12/14 09:11:49;;;;;;;59.95;40.25;;;;;;;1.88;83.79;98400.75;10374015;28;20064;-57
2021/12/14 09:16:54;;;;;;;77.85;44.90;;;;;;;1.92;84.15;98406.06;10339534;28;20061;-57
2021/12/14 09:21:56;;;;;;;54.92;32.83;;;;;;;1.88;83.62;98399.09;10334013;28;20520;-57
2021/12/14 09:27:04;;;;;;;81.35;46.90;;;;;;;1.92;83.83;98397.53;10349268;28;20060;-57
2021/12/14 09:32:08;;;;;;;73.82;46.30;;;;;;;1.88;84.11;98396.53;10373385;28;20048;-57
2021/12/14 09:37:10;;;;;;;66.90;36.97;;;;;;;1.82;84.17;98386.00;10372931;28;20484;-57
2021/12/14 09:42:14;;;;;;;78.05;39.83;;;;;;;1.81;83.92;98388.50;10371728;28;20539;-57
2021/12/14 09:47:20;;;;;;;216.85;84.53;;;;;;;1.79;84.34;98380.78;10372741;28;20519;-57
2021/12/14 09:52:27;;;;;;;177.80;73.45;;;;;;;1.83;84.60;98369.84;10370611;28;20052;-57
2021/12/14 09:57:32;;;;;;;429.52;162.93;;;;;;;1.95;83.97;98379.75;10370826;28;20115;-57
2021/12/14 10:02:35;;;;;;;76.60;50.88;;;;;;;1.89;84.10;98366.69;10372424;28;20488;-57
2021/12/14 10:07:35;;;;;;;139.90;67.90;;;;;;;1.93;83.87;98374.56;10369212;28;20589;-57
2021/12/14 10:12:49;;;;;;;51.83;27.55;;;;;;;1.91;84.22;98375.31;10368731;28;20056;-57
2021/12/14 10:17:51;;;;;;;101.38;45.22;;;;;;;2.08;84.29;98368.34;10372783;28;20087;-58
2021/12/14 10:22:51;;;;;;;91.30;42.17;;;;;;;2.13;84.18;98348.91;10372672;28;20052;-58
2021/12/14 10:27:50;;;;;;;537.95;177.05;;;;;;;2.30;83.99;98360.75;10372789;28;20063;-58
2021/12/14 10:32:50;;;;;;;134.68;55.88;;;;;;;2.30;83.37;98363.31;10372635;28;20162;-58
2021/12/14 10:37:56;;;;;;;123.28;44.20;;;;;;;2.24;82.86;98357.94;10372150;28;20060;-57
2021/12/14 10:43:15;;;;;;;47.35;25.13;;;;;;;2.32;83.40;98348.00;10371806;28;20479;-58
2021/12/14 10:48:15;;;;;;;50.40;33.13;;;;;;;2.45;83.14;98350.25;10376906;28;20064;-58
2021/12/14 10:53:14;;;;;;;32.50;21.20;;;;;;;2.62;82.83;98352.63;10378657;28;20056;-58
2021/12/14 10:58:17;;;;;;;30.20;21.45;;;;;;;2.62;82.46;98344.94;10380112;28;20088;-58
2021/12/14 11:03:27;;;;;;;29.52;20.33;;;;;;;2.67;82.51;98345.97;10379377;28;20060;-58
2021/12/14 11:14:06;;;;;;;35.17;24.58;;;;;;;2.77;81.98;98343.84;10304131;28;20087;-58
2021/12/14 11:19:06;;;;;;;38.05;24.23;;;;;;;2.79;81.71;98337.09;10378738;28;20559;-58
2021/12/14 11:24:04;;;;;;;;;;;;;;;2.74;81.42;98338.59;10379247;28;20053;-58
2021/12/14 11:29:13;;;;;;;44.63;28.33;;;;;;;2.66;81.49;98331.44;10379034;28;19951;-58
2021/12/14 11:34:37;;;;;;;28.08;19.00;;;;;;;2.63;81.56;98334.75;10378522;28;20492;-57
2021/12/14 11:39:41;;;;;;;26.75;16.90;;;;;;;2.58;81.23;98331.09;10378180;28;20059;-58
2021/12/14 11:44:58;;;;;;;38.80;24.08;;;;;;;2.57;81.40;98331.94;10378078;28;20061;-58
2021/12/14 11:50:01;;;;;;;21.80;14.38;;;;;;;2.67;82.11;98328.03;10378131;28;20060;-57
2021/12/14 11:55:00;;;;;;;20.08;13.32;;;;;;;2.81;81.77;98324.31;10378207;28;20052;-58
2021/12/14 12:00:08;;;;;;;36.00;20.38;;;;;;;2.93;81.86;98326.47;10377534;28;20080;-58
2021/12/14 12:05:23;;;;;;;23.63;16.05;;;;;;;3.00;81.80;98323.34;10377897;28;20060;-56
2021/12/14 12:10:22;;;;;;;18.85;14.35;;;;;;;3.07;81.83;98327.00;10376360;28;20060;-58
2021/12/14 12:15:23;;;;;;;43.28;27.25;;;;;;;3.06;81.32;98315.88;10377358;28;20064;-56
2021/12/14 12:20:49;;;;;;;43.35;28.15;;;;;;;3.02;80.94;98317.44;10376981;28;20073;-56
2021/12/14 12:25:59;;;;;;;26.38;17.50;;;;;;;2.96;81.35;98309.53;10375287;28;20511;-56
2021/12/14 12:31:11;;;;;;;20.10;13.52;;;;;;;3.09;80.68;98310.00;10376422;28;20053;-56
2021/12/14 12:36:16;;;;;;;21.58;14.77;;;;;;;3.07;80.96;98315.06;10376349;28;20056;-56
2021/12/14 12:41:32;;;;;;;27.67;17.85;;;;;;;3.06;80.88;98321.00;10376163;28;20072;-56
2021/12/14 12:46:43;;;;;;;21.70;14.40;;;;;;;2.91;80.80;98290.56;10376126;28;20562;-56
2021/12/14 12:51:51;;;;;;;22.65;16.80;;;;;;;2.84;79.66;98313.31;10375846;28;20071;-58
2021/12/14 12:57:08;;;;;;;22.73;16.30;;;;;;;2.72;80.12;98326.53;10373378;28;20084;-56
2021/12/14 13:02:29;;;;;;;26.17;19.25;;;;;;;2.45;80.08;98324.63;10372975;28;20056;-58
2021/12/14 13:07:52;;;;;;;21.05;15.98;;;;;;;2.28;80.86;98336.75;10375434;28;20060;-59
2021/12/14 13:12:57;;;;;;;38.55;24.83;;;;;;;2.16;80.65;98342.25;10374592;28;20567;-59
2021/12/14 13:18:20;;;;;;;37.95;28.17;;;;;;;1.92;80.92;98336.97;10375262;28;20065;-59
2021/12/14 13:23:36;;;;;;;20.92;14.77;;;;;;;1.73;81.53;98325.06;10374751;28;20057;-59
2021/12/14 13:28:37;;;;;;;21.63;15.70;;;;;;;1.71;81.58;98321.56;10374326;28;20069;-58
2021/12/14 13:33:36;;;;;;;23.83;14.45;;;;;;;1.85;81.94;98334.97;10372868;28;20198;-59
2021/12/14 13:38:35;;;;;;;30.92;18.85;;;;;;;1.86;81.97;98335.84;10373069;28;20453;-56
2021/12/14 13:43:38;;;;;;;24.25;17.27;;;;;;;2.05;82.18;98337.50;10373772;28;20507;-58
2021/12/14 13:48:41;;;;;;;23.13;16.73;;;;;;;2.22;82.00;98345.88;10373474;28;20060;-58
2021/12/14 13:53:41;;;;;;;30.63;20.98;;;;;;;2.31;82.28;98342.00;10373540;28;20466;-59
2021/12/14 13:58:41;;;;;;;35.50;25.27;;;;;;;2.35;82.41;98340.47;10373429;28;20091;-59
2021/12/14 14:03:43;;;;;;;38.58;27.00;;;;;;;2.30;81.99;98349.63;10373008;28;20060;-59
2021/12/14 14:08:46;;;;;;;51.88;35.33;;;;;;;2.29;81.71;98346.19;10373239;28;20067;-59
2021/12/14 14:13:46;;;;;;;44.47;30.90;;;;;;;2.28;82.13;98353.81;10373151;28;20060;-59
2021/12/14 14:18:52;;;;;;;91.90;52.03;;;;;;;2.35;82.48;98349.00;10372762;28;20072;-59
2021/12/14 14:23:51;;;;;;;71.90;44.80;;;;;;;2.36;81.91;98342.19;10371616;28;20064;-56
2021/12/14 14:28:53;;;;;;;63.75;43.05;;;;;;;2.35;82.16;98340.47;10372260;28;20135;-58
2021/12/14 14:33:53;;;;;;;58.28;40.53;;;;;;;2.29;81.93;98347.88;10372998;28;20071;-56
2021/12/14 14:39:12;;;;;;;57.55;41.08;;;;;;;2.33;82.11;98367.69;10372592;28;20082;-56
2021/12/14 14:44:33;;;;;;;62.67;40.72;;;;;;;2.25;81.84;98367.34;10372048;28;20075;-56
2021/12/14 14:49:32;;;;;;;46.60;32.15;;;;;;;2.23;82.16;98363.88;10371893;28;20114;-56
2021/12/14 14:54:31;;;;;;;34.60;23.65;;;;;;;2.23;81.58;98366.44;10355293;28;20021;-58
2021/12/14 14:59:30;;;;;;;155.80;79.00;;;;;;;2.08;81.85;98358.97;10338844;28;20512;-59
2021/12/14 15:04:29;;;;;;;73.15;42.58;;;;;;;2.11;81.80;98366.81;10330807;28;20501;-59
2021/12/14 15:09:30;;;;;;;54.70;32.65;;;;;;;2.05;82.32;98369.09;10330976;28;20508;-59
2021/12/14 15:14:41;;;;;;;74.65;46.30;;;;;;;1.95;82.32;98367.84;10330920;28;20516;-59
2021/12/14 15:19:48;;;;;;;68.28;42.97;;;;;;;1.82;82.84;98369.78;10330939;28;20068;-59
2021/12/14 15:25:11;;;;;;;67.38;47.67;;;;;;;1.87;82.75;98379.41;10331187;28;20100;-59
2021/12/14 15:30:14;;;;;;;56.22;39.60;;;;;;;1.92;83.28;98383.03;10330559;28;20516;-58
2021/12/14 15:35:17;;;;;;;68.63;47.53;;;;;;;2.00;82.67;98375.69;10336693;28;20064;-59
2021/12/14 15:40:16;;;;;;;74.63;50.70;;;;;;;2.09;83.12;98376.09;10337214;28;20057;-58
2021/12/14 15:45:23;;;;;;;71.30;49.08;;;;;;;2.07;83.35;98370.03;10337858;28;20017;-56
2021/12/14 15:50:22;;;;;;;85.88;52.25;;;;;;;1.97;83.90;98373.00;10371693;28;20064;-58
2021/12/14 15:55:29;;;;;;;;;;;;;;;1.99;83.40;98365.38;10378442;28;20048;-59
2021/12/14 16:00:28;;;;;;;76.75;48.42;;;;;;;1.96;83.54;98353.34;10377436;28;20914;-58
2021/12/14 16:05:27;;;;;;;70.78;44.90;;;;;;;2.14;83.34;98379.72;10377170;28;20680;-58
2021/12/14 16:10:32;;;;;;;81.90;54.60;;;;;;;2.09;83.29;98380.31;10376618;28;20060;-58
2021/12/14 16:15:31;;;;;;;94.63;64.00;;;;;;;2.20;83.22;98378.22;10376930;28;20063;-59
2021/12/14 16:20:34;;;;;;;110.47;68.88;;;;;;;2.15;82.97;98378.91;10376354;28;20486;-59
2021/12/14 16:25:39;;;;;;;86.75;55.30;;;;;;;2.03;83.28;98380.94;10377023;28;20060;-59
2021/12/14 16:30:41;;;;;;;91.85;60.58;;;;;;;2.02;83.35;98397.13;10392797;28;20448;-58
2021/12/14 16:35:47;;;;;;;108.15;67.75;;;;;;;1.90;83.73;98394.00;10376428;28;20060;-58
2021/12/14 16:40:47;;;;;;;84.85;55.28;;;;;;;1.87;83.27;98393.91;10376556;28;20072;-58
2021/12/14 16:45:46;;;;;;;;;;;;;;;1.82;84.00;98403.06;10375842;28;20154;-58
2021/12/14 16:50:46;;;;;;;92.60;60.37;;;;;;;1.78;84.15;98383.25;10375981;28;19959;-59
2021/12/14 16:55:46;;;;;;;87.63;58.65;;;;;;;1.91;83.89;98388.97;10375882;28;20067;-59
2021/12/14 17:00:51;;;;;;;85.07;55.97;;;;;;;1.96;83.95;98407.97;10375668;28;20080;-59
2021/12/14 17:05:59;;;;;;;92.57;63.08;;;;;;;1.92;84.12;98405.19;10375218;28;20476;-59
2021/12/14 17:11:01;;;;;;;88.75;59.45;;;;;;;1.96;84.16;98409.66;10374983;28;20064;-59
2021/12/14 17:16:03;;;;;;;92.18;61.63;;;;;;;2.03;83.88;98409.09;10373754;28;20135;-59
2021/12/14 17:21:04;;;;;;;91.80;62.03;;;;;;;2.07;84.28;98412.69;10374388;28;20476;-59
2021/12/14 17:26:11;;;;;;;114.60;73.65;;;;;;;2.17;83.69;98415.69;10374333;28;20484;-58
2021/12/14 17:31:17;;;;;;;123.40;81.00;;;;;;;2.17;83.68;98410.56;10374317;28;20476;-58
2021/12/14 17:36:21;;;;;;;127.47;82.10;;;;;;;2.28;83.07;98415.28;10374401;28;20060;-59
2021/12/14 17:41:30;;;;;;;92.57;57.97;;;;;;;2.23;83.14;98404.84;10373603;28;20060;-58
2021/12/14 17:46:29;;;;;;;80.38;53.28;;;;;;;2.28;83.07;98425.53;10373776;28;20060;-61
2021/12/14 17:51:32;;;;;;;178.90;111.78;;;;;;;2.15;83.12;98419.00;10373937;28;20067;-58
2021/12/14 17:56:32;;;;;;;97.07;63.45;;;;;;;2.02;83.23;98425.28;10373052;28;20083;-57
2021/12/14 18:01:31;;;;;;;123.80;78.57;;;;;;;2.01;83.27;98438.00;10372902;28;20519;-57
2021/12/14 18:06:31;;;;;;;130.50;79.97;;;;;;;2.03;83.25;98437.25;10373435;28;20089;-56
2021/12/14 18:11:37;;;;;;;120.03;75.53;;;;;;;1.93;83.44;98443.66;10369788;28;20080;-57
2021/12/14 18:16:47;;;;;;;108.28;66.65;;;;;;;1.87;83.91;98445.06;10370472;28;20095;-57
2021/12/14 18:21:57;;;;;;;102.00;61.85;;;;;;;2.03;83.83;98444.94;10373025;28;20060;-57
2021/12/14 18:27:11;;;;;;;43.28;28.85;;;;;;;2.07;83.48;98445.97;10372083;28;20059;-57
2021/12/14 18:32:17;;;;;;;50.97;31.77;;;;;;;2.09;83.23;98446.88;10371346;28;20535;-57
2021/12/14 18:37:19;;;;;;;60.70;39.17;;;;;;;2.20;83.51;98449.91;10372300;28;20130;-57
2021/12/14 18:42:22;;;;;;;69.28;45.00;;;;;;;2.21;83.39;98431.16;10370754;28;20099;-58
2021/12/14 18:52:41;;;;;;;82.75;53.70;;;;;;;2.35;83.31;98442.91;10372123;28;20057;-58
2021/12/14 18:57:42;;;;;;;223.02;123.82;;;;;;;2.23;84.41;98444.91;10370127;28;20064;-58
2021/12/14 19:02:41;;;;;;;118.90;72.53;;;;;;;2.28;84.29;98449.44;10371058;28;20119;-58
2021/12/14 19:07:45;;;;;;;106.50;64.43;;;;;;;2.29;84.22;98455.44;10373763;28;20075;-58
2021/12/14 19:12:49;;;;;;;119.95;75.07;;;;;;;2.22;84.34;98438.06;10379841;28;20053;-58
2021/12/14 19:17:52;;;;;;;131.23;82.65;;;;;;;2.29;84.10;98456.31;10378956;28;20472;-58
2021/12/14 19:22:52;;;;;;;134.63;85.10;;;;;;;2.30;84.21;98463.19;10377140;28;20577;-58
2021/12/14 19:27:56;;;;;;;121.10;81.40;;;;;;;2.34;84.35;98469.31;10379754;28;20488;-58
2021/12/14 19:32:57;;;;;;;139.95;88.03;;;;;;;2.34;84.38;98464.19;10378833;28;20506;-58
2021/12/14 19:38:01;;;;;;;122.97;81.50;;;;;;;2.28;84.16;98456.25;10378539;28;20071;-58
2021/12/14 19:43:07;;;;;;;111.22;72.78;;;;;;;2.24;84.49;98456.94;10378412;28;20060;-58
2021/12/14 19:48:28;;;;;;;107.35;67.38;;;;;;;2.29;83.90;98470.81;10377726;28;20076;-58
2021/12/14 19:53:39;;;;;;;104.35;66.53;;;;;;;2.23;84.29;98460.28;10378016;28;20071;-58
2021/12/14 19:58:40;;;;;;;91.25;57.25;;;;;;;2.21;84.02;98452.56;10377559;28;20080;-58
2021/12/14 20:03:47;;;;;;;88.57;56.38;;;;;;;2.27;84.25;98454.50;10377715;28;20076;-58
2021/12/14 20:08:50;;;;;;;95.43;61.80;;;;;;;2.25;84.33;98449.28;10377401;28;20068;-58
2021/12/14 20:13:53;;;;;;;91.20;56.33;;;;;;;2.20;84.62;98444.78;10377348;28;20061;-58
2021/12/14 20:18:53;;;;;;;102.45;65.60;;;;;;;2.28;85.10;98446.00;10377313;28;20478;-58
2021/12/14 20:23:59;;;;;;;100.15;64.45;;;;;;;2.25;85.08;98443.31;10376909;28;20163;-58
2021/12/14 20:29:05;;;;;;;110.03;73.82;;;;;;;2.21;84.81;98443.97;10376460;28;20516;-58
2021/12/14 20:34:13;;;;;;;90.57;58.50;;;;;;;2.09;85.04;98432.41;10374901;28;20057;-58
2021/12/14 20:39:18;;;;;;;66.70;43.20;;;;;;;2.11;84.83;98456.41;10376279;28;20496;-58
2021/12/14 20:44:24;;;;;;;66.30;40.90;;;;;;;2.02;85.66;98453.44;10375674;28;20060;-58
2021/12/14 20:49:31;;;;;;;100.10;56.47;;;;;;;1.94;85.58;98457.34;10376185;28;20546;-58
2021/12/14 20:54:31;;;;;;;84.38;52.75;;;;;;;1.70;85.66;98444.34;10375673;28;20056;-58
2021/12/14 20:59:42;;;;;;;68.13;42.22;;;;;;;1.71;86.02;98448.63;10375153;28;20076;-58
2021/12/14 21:04:42;;;;;;;53.72;34.63;;;;;;;1.44;86.55;98459.38;10375483;28;20061;-58
2021/12/14 21:09:40;;;;;;;;;;;;;;;1.44;86.91;98463.63;10375574;28;20061;-58
2021/12/14 21:14:50;;;;;;;64.25;40.13;;;;;;;1.44;86.93;98461.06;10374637;28;19986;-58
2021/12/14 21:19:59;;;;;;;70.40;44.00;;;;;;;1.69;86.74;98471.59;10374989;28;20060;-58
2021/12/14 21:25:25;;;;;;;66.28;40.17;;;;;;;1.75;86.94;98476.13;10374616;28;20067;-58
2021/12/14 21:30:26;;;;;;;62.60;37.80;;;;;;;1.83;86.81;98471.34;10373415;28;20060;-58
2021/12/14 21:35:33;;;;;;;72.55;46.97;;;;;;;1.79;86.68;98456.66;10374115;28;20052;-58
2021/12/14 21:40:56;;;;;;;57.95;35.15;;;;;;;1.96;86.87;98468.53;10374241;28;20091;-58
2021/12/14 21:45:57;;;;;;;70.63;42.38;;;;;;;1.96;86.49;98455.72;10373768;28;20056;-58
2021/12/14 21:50:56;;;;;;;59.90;37.65;;;;;;;2.01;86.84;98455.94;10373300;28;20067;-58
2021/12/14 21:55:55;;;;;;;61.65;40.10;;;;;;;2.14;86.48;98456.53;10373868;28;20056;-58
2021/12/14 22:00:54;;;;;;;53.53;33.38;;;;;;;2.19;86.22;98463.53;10373129;28;20084;-58
2021/12/14 22:05:53;;;;;;;43.22;26.13;;;;;;;2.03;86.00;98473.09;10372951;28;20068;-58
2021/12/14 22:10:53;;;;;;;39.50;23.85;;;;;;;1.80;86.58;98466.09;10371732;28;20064;-58
2021/12/14 22:15:56;;;;;;;37.53;23.42;;;;;;;1.27;87.80;98457.69;10372720;28;20060;-58
2021/12/14 22:20:57;;;;;;;36.60;22.58;;;;;;;1.11;88.88;98476.56;10372737;28;20052;-58
2021/12/14 22:25:58;;;;;;;41.38;24.63;;;;;;;1.01;89.34;98477.78;10373498;28;20060;-58
2021/12/14 22:30:58;;;;;;;42.85;26.02;;;;;;;1.03;89.07;98468.50;10372168;28;20067;-58
2021/12/14 22:35:57;;;;;;;54.13;32.42;;;;;;;1.10;89.28;98462.00;10372605;28;20500;-58
2021/12/14 22:41:10;;;;;;;51.70;31.15;;;;;;;1.13;89.29;98462.19;10370509;28;20138;-58
2021/12/14 22:46:09;;;;;;;55.25;33.58;;;;;;;1.16;89.37;98472.53;10378323;28;20122;-58
2021/12/14 22:51:09;;;;;;;40.50;23.15;;;;;;;1.27;89.41;98466.25;10380736;28;20056;-58
2021/12/14 22:56:08;;;;;;;45.72;27.67;;;;;;;1.26;89.21;98464.50;10381088;28;20049;-58
2021/12/14 23:01:17;;;;;;;44.95;25.92;;;;;;;1.14;89.59;98466.47;10379858;28;20083;-58
2021/12/14 23:06:17;;;;;;;53.10;29.90;;;;;;;1.03;90.04;98459.97;10379616;28;20566;-58
2021/12/14 23:11:24;;;;;;;45.85;27.60;;;;;;;1.04;89.97;98459.19;10380117;28;20056;-58
2021/12/14 23:16:26;;;;;;;39.65;23.08;;;;;;;1.17;90.15;98453.84;10379816;28;20480;-58
2021/12/14 23:21:28;;;;;;;36.00;21.23;;;;;;;1.36;89.60;98436.78;10378688;28;20052;-58
2021/12/14 23:26:27;;;;;;;36.00;20.25;;;;;;;1.53;89.36;98451.25;10378735;28;20063;-58
2021/12/14 23:31:26;;;;;;;37.13;21.63;;;;;;;1.56;89.43;98448.81;10379673;28;20056;-58
2021/12/14 23:36:25;;;;;;;;;;;;;;;1.65;89.51;98440.69;10379206;28;20056;-58
2021/12/14 23:41:24;;;;;;;49.33;27.88;;;;;;;1.69;89.04;98424.66;10378395;28;19912;-58
2021/12/14 23:51:23;;;;;;;47.88;28.95;;;;;;;1.82;88.86;98426.97;10378577;28;19912;-58
2021/12/14 23:56:22;;;;;;;51.45;29.52;;;;;;;1.82;88.53;98441.44;10375836;28;20067;-58
